sensor_id;sensor_type;location;lat;lon;timestamp;temperature;humidity
69225;DHT22;56333;51.306;17.056;2023-03-19T00:01:02;7.28;54.00
69225;DHT22;56333;51.306;17.056;2023-03-19T00:02:28;7.26;54.30
69225;DHT22;56333;51.306;17.056;2023-03-19T00:03:53;7.23;54.15
69225;DHT22;56333;51.306;17.056;2023-03-19T00:05:18;7.21;54.33
69225;DHT22;56333;51.306;17.056;2023-03-19T00:06:42;7.19;54.25
69225;DHT22;56333;51.306;17.056;2023-03-19T00:08:07;7.18;54.40
69225;DHT22;56333;51.306;17.056;2023-03-19T00:09:31;7.16;54.40
69225;DHT22;56333;51.306;17.056;2023-03-19T00:10:56;7.14;54.42
69225;DHT22;56333;51.306;17.056;2023-03-19T00:12:22;7.13;54.53
69225;DHT22;56333;51.306;17.056;2023-03-19T00:13:46;7.11;54.53
69225;DHT22;56333;51.306;17.056;2023-03-19T00:15:11;7.10;54.50
69225;DHT22;56333;51.306;17.056;2023-03-19T00:16:36;7.08;54.53
69225;DHT22;56333;51.306;17.056;2023-03-19T00:18:00;7.04;54.70
69225;DHT22;56333;51.306;17.056;2023-03-19T00:19:27;7.03;55.15
69225;DHT22;56333;51.306;17.056;2023-03-19T00:20:52;7.00;54.97
69225;DHT22;56333;51.306;17.056;2023-03-19T00:22:16;6.97;55.08
69225;DHT22;56333;51.306;17.056;2023-03-19T00:23:41;6.95;55.15
69225;DHT22;56333;51.306;17.056;2023-03-19T00:25:07;6.95;55.08
69225;DHT22;56333;51.306;17.056;2023-03-19T00:26:32;6.92;54.95
69225;DHT22;56333;51.306;17.056;2023-03-19T00:27:57;6.91;54.92
69225;DHT22;56333;51.306;17.056;2023-03-19T00:29:23;6.88;54.88
69225;DHT22;56333;51.306;17.056;2023-03-19T00:30:48;6.88;54.92
69225;DHT22;56333;51.306;17.056;2023-03-19T00:32:13;6.84;55.03
69225;DHT22;56333;51.306;17.056;2023-03-19T00:33:38;6.84;55.03
69225;DHT22;56333;51.306;17.056;2023-03-19T00:35:05;6.81;55.05
69225;DHT22;56333;51.306;17.056;2023-03-19T00:36:34;6.80;55.08
69225;DHT22;56333;51.306;17.056;2023-03-19T00:37:59;6.76;55.38
69225;DHT22;56333;51.306;17.056;2023-03-19T00:39:26;6.73;55.33
69225;DHT22;56333;51.306;17.056;2023-03-19T00:40:51;6.72;55.30
69225;DHT22;56333;51.306;17.056;2023-03-19T00:42:15;6.70;55.55
69225;DHT22;56333;51.306;17.056;2023-03-19T00:43:40;6.68;55.60
69225;DHT22;56333;51.306;17.056;2023-03-19T00:45:08;6.66;55.47
69225;DHT22;56333;51.306;17.056;2023-03-19T00:46:33;6.62;55.63
69225;DHT22;56333;51.306;17.056;2023-03-19T00:47:59;6.60;55.58
69225;DHT22;56333;51.306;17.056;2023-03-19T00:49:24;6.59;55.50
69225;DHT22;56333;51.306;17.056;2023-03-19T00:50:49;6.57;55.55
69225;DHT22;56333;51.306;17.056;2023-03-19T00:52:13;6.56;55.65
69225;DHT22;56333;51.306;17.056;2023-03-19T00:53:38;6.53;55.90
69225;DHT22;56333;51.306;17.056;2023-03-19T00:55:05;6.51;55.78
69225;DHT22;56333;51.306;17.056;2023-03-19T00:56:31;6.48;55.92
69225;DHT22;56333;51.306;17.056;2023-03-19T00:57:55;6.47;55.97
69225;DHT22;56333;51.306;17.056;2023-03-19T00:59:20;6.43;56.55
69225;DHT22;56333;51.306;17.056;2023-03-19T01:00:46;6.41;56.22
69225;DHT22;56333;51.306;17.056;2023-03-19T01:02:13;6.40;56.30
69225;DHT22;56333;51.306;17.056;2023-03-19T01:03:38;6.38;56.28
69225;DHT22;56333;51.306;17.056;2023-03-19T01:05:03;6.36;56.53
69225;DHT22;56333;51.306;17.056;2023-03-19T01:06:30;6.33;56.45
69225;DHT22;56333;51.306;17.056;2023-03-19T01:07:55;6.32;56.22
69225;DHT22;56333;51.306;17.056;2023-03-19T01:09:20;6.30;56.33
69225;DHT22;56333;51.306;17.056;2023-03-19T01:10:44;6.27;56.42
69225;DHT22;56333;51.306;17.056;2023-03-19T01:12:09;6.26;56.47
69225;DHT22;56333;51.306;17.056;2023-03-19T01:13:34;6.25;56.60
69225;DHT22;56333;51.306;17.056;2023-03-19T01:15:00;6.20;56.65
69225;DHT22;56333;51.306;17.056;2023-03-19T01:16:26;6.20;56.97
69225;DHT22;56333;51.306;17.056;2023-03-19T01:17:51;6.16;57.13
69225;DHT22;56333;51.306;17.056;2023-03-19T01:19:15;6.15;57.17
69225;DHT22;56333;51.306;17.056;2023-03-19T01:20:40;6.13;57.45
69225;DHT22;56333;51.306;17.056;2023-03-19T01:22:05;6.09;57.53
69225;DHT22;56333;51.306;17.056;2023-03-19T01:23:32;6.06;57.28
69225;DHT22;56333;51.306;17.056;2023-03-19T01:24:56;6.03;57.28
69225;DHT22;56333;51.306;17.056;2023-03-19T01:26:22;5.99;57.17
69225;DHT22;56333;51.306;17.056;2023-03-19T01:27:51;5.95;57.28
69225;DHT22;56333;51.306;17.056;2023-03-19T01:29:17;5.92;57.42
69225;DHT22;56333;51.306;17.056;2023-03-19T01:30:41;5.88;57.58
69225;DHT22;56333;51.306;17.056;2023-03-19T01:32:16;5.84;57.60
69225;DHT22;56333;51.306;17.056;2023-03-19T01:34:29;5.81;57.78
69225;DHT22;56333;51.306;17.056;2023-03-19T01:36:03;5.79;57.65
69225;DHT22;56333;51.306;17.056;2023-03-19T01:38:12;5.78;57.80
69225;DHT22;56333;51.306;17.056;2023-03-19T01:39:37;5.77;57.67
69225;DHT22;56333;51.306;17.056;2023-03-19T01:41:06;5.75;57.72
69225;DHT22;56333;51.306;17.056;2023-03-19T01:42:31;5.72;57.95
69225;DHT22;56333;51.306;17.056;2023-03-19T01:44:24;5.70;58.20
69225;DHT22;56333;51.306;17.056;2023-03-19T01:46:31;5.63;58.55
69225;DHT22;56333;51.306;17.056;2023-03-19T01:48:25;5.63;58.20
69225;DHT22;56333;51.306;17.056;2023-03-19T01:50:14;5.60;58.15
69225;DHT22;56333;51.306;17.056;2023-03-19T01:52:31;5.57;58.72
69225;DHT22;56333;51.306;17.056;2023-03-19T01:54:15;5.51;58.90
69225;DHT22;56333;51.306;17.056;2023-03-19T01:56:05;5.50;58.83
69225;DHT22;56333;51.306;17.056;2023-03-19T01:57:48;5.48;58.65
69225;DHT22;56333;51.306;17.056;2023-03-19T01:59:47;5.46;58.85
69225;DHT22;56333;51.306;17.056;2023-03-19T02:01:15;5.46;58.75
69225;DHT22;56333;51.306;17.056;2023-03-19T02:02:41;5.44;58.85
69225;DHT22;56333;51.306;17.056;2023-03-19T02:04:55;5.39;59.03
69225;DHT22;56333;51.306;17.056;2023-03-19T02:06:23;5.40;58.83
69225;DHT22;56333;51.306;17.056;2023-03-19T02:07:50;5.37;59.03
69225;DHT22;56333;51.306;17.056;2023-03-19T02:09:18;5.34;59.00
69225;DHT22;56333;51.306;17.056;2023-03-19T02:10:43;5.34;58.88
69225;DHT22;56333;51.306;17.056;2023-03-19T02:12:10;5.32;59.13
69225;DHT22;56333;51.306;17.056;2023-03-19T02:13:35;5.29;59.25
69225;DHT22;56333;51.306;17.056;2023-03-19T02:15:00;5.26;59.40
69225;DHT22;56333;51.306;17.056;2023-03-19T02:16:26;5.25;59.17
69225;DHT22;56333;51.306;17.056;2023-03-19T02:17:51;5.26;59.03
69225;DHT22;56333;51.306;17.056;2023-03-19T02:19:18;5.25;59.03
69225;DHT22;56333;51.306;17.056;2023-03-19T02:20:52;5.27;58.92
69225;DHT22;56333;51.306;17.056;2023-03-19T02:22:26;5.30;58.80
69225;DHT22;56333;51.306;17.056;2023-03-19T02:23:54;5.33;59.13
69225;DHT22;56333;51.306;17.056;2023-03-19T02:25:48;5.36;58.88
69225;DHT22;56333;51.306;17.056;2023-03-19T02:27:34;5.36;58.95
69225;DHT22;56333;51.306;17.056;2023-03-19T02:28:58;5.38;58.75
69225;DHT22;56333;51.306;17.056;2023-03-19T02:30:28;5.42;58.75
69225;DHT22;56333;51.306;17.056;2023-03-19T02:31:58;5.44;58.70
69225;DHT22;56333;51.306;17.056;2023-03-19T02:33:24;5.42;58.58
69225;DHT22;56333;51.306;17.056;2023-03-19T02:34:49;5.46;58.58
69225;DHT22;56333;51.306;17.056;2023-03-19T02:36:13;5.47;58.53
69225;DHT22;56333;51.306;17.056;2023-03-19T02:37:40;5.49;58.42
69225;DHT22;56333;51.306;17.056;2023-03-19T02:39:14;5.52;58.42
69225;DHT22;56333;51.306;17.056;2023-03-19T02:40:47;5.53;58.42
69225;DHT22;56333;51.306;17.056;2023-03-19T02:42:17;5.54;58.72
69225;DHT22;56333;51.306;17.056;2023-03-19T02:43:44;5.55;58.50
69225;DHT22;56333;51.306;17.056;2023-03-19T02:45:09;5.57;58.53
69225;DHT22;56333;51.306;17.056;2023-03-19T02:46:35;5.57;58.53
69225;DHT22;56333;51.306;17.056;2023-03-19T02:47:59;5.59;58.47
69225;DHT22;56333;51.306;17.056;2023-03-19T02:49:25;5.58;58.63
69225;DHT22;56333;51.306;17.056;2023-03-19T02:50:49;5.60;58.47
69225;DHT22;56333;51.306;17.056;2023-03-19T02:52:14;5.61;58.40
69225;DHT22;56333;51.306;17.056;2023-03-19T02:53:39;5.61;58.50
69225;DHT22;56333;51.306;17.056;2023-03-19T02:55:05;5.62;58.55
69225;DHT22;56333;51.306;17.056;2023-03-19T02:56:31;5.63;58.47
69225;DHT22;56333;51.306;17.056;2023-03-19T02:57:56;5.65;58.42
69225;DHT22;56333;51.306;17.056;2023-03-19T02:59:21;5.66;58.42
69225;DHT22;56333;51.306;17.056;2023-03-19T03:00:46;5.67;58.30
69225;DHT22;56333;51.306;17.056;2023-03-19T03:02:11;5.69;58.33
69225;DHT22;56333;51.306;17.056;2023-03-19T03:03:36;5.71;58.38
69225;DHT22;56333;51.306;17.056;2023-03-19T03:05:02;5.73;58.38
69225;DHT22;56333;51.306;17.056;2023-03-19T03:06:27;5.74;58.30
69225;DHT22;56333;51.306;17.056;2023-03-19T03:07:52;5.75;58.17
69225;DHT22;56333;51.306;17.056;2023-03-19T03:09:17;5.77;58.25
69225;DHT22;56333;51.306;17.056;2023-03-19T03:10:43;5.78;58.20
69225;DHT22;56333;51.306;17.056;2023-03-19T03:12:09;5.80;58.20
69225;DHT22;56333;51.306;17.056;2023-03-19T03:13:34;5.82;58.15
69225;DHT22;56333;51.306;17.056;2023-03-19T03:14:59;5.84;58.13
69225;DHT22;56333;51.306;17.056;2023-03-19T03:16:23;5.84;58.15
69225;DHT22;56333;51.306;17.056;2023-03-19T03:17:48;5.85;58.10
69225;DHT22;56333;51.306;17.056;2023-03-19T03:19:13;5.86;58.08
69225;DHT22;56333;51.306;17.056;2023-03-19T03:20:38;5.86;58.15
69225;DHT22;56333;51.306;17.056;2023-03-19T03:22:03;5.86;58.08
69225;DHT22;56333;51.306;17.056;2023-03-19T03:23:27;5.87;58.00
69225;DHT22;56333;51.306;17.056;2023-03-19T03:24:55;5.88;58.15
69225;DHT22;56333;51.306;17.056;2023-03-19T03:26:19;5.86;58.08
69225;DHT22;56333;51.306;17.056;2023-03-19T03:27:44;5.86;57.97
69225;DHT22;56333;51.306;17.056;2023-03-19T03:29:08;5.87;57.97
69225;DHT22;56333;51.306;17.056;2023-03-19T03:30:33;5.87;57.90
69225;DHT22;56333;51.306;17.056;2023-03-19T03:31:57;5.87;57.97
69225;DHT22;56333;51.306;17.056;2023-03-19T03:33:22;5.87;58.00
69225;DHT22;56333;51.306;17.056;2023-03-19T03:34:46;5.86;57.92
69225;DHT22;56333;51.306;17.056;2023-03-19T03:36:11;5.86;57.97
69225;DHT22;56333;51.306;17.056;2023-03-19T03:37:36;5.86;58.00
69225;DHT22;56333;51.306;17.056;2023-03-19T03:39:00;5.86;58.05
69225;DHT22;56333;51.306;17.056;2023-03-19T03:40:26;5.85;58.05
69225;DHT22;56333;51.306;17.056;2023-03-19T03:41:52;5.84;58.05
69225;DHT22;56333;51.306;17.056;2023-03-19T03:43:16;5.82;58.15
69225;DHT22;56333;51.306;17.056;2023-03-19T03:44:42;5.82;58.15
69225;DHT22;56333;51.306;17.056;2023-03-19T03:46:07;5.82;58.10
69225;DHT22;56333;51.306;17.056;2023-03-19T03:47:33;5.81;58.17
69225;DHT22;56333;51.306;17.056;2023-03-19T03:48:57;5.81;58.28
69225;DHT22;56333;51.306;17.056;2023-03-19T03:50:22;5.80;58.05
69225;DHT22;56333;51.306;17.056;2023-03-19T03:51:47;5.79;58.08
69225;DHT22;56333;51.306;17.056;2023-03-19T03:53:12;5.78;58.13
69225;DHT22;56333;51.306;17.056;2023-03-19T03:54:38;5.77;58.20
69225;DHT22;56333;51.306;17.056;2023-03-19T03:56:03;5.77;58.17
69225;DHT22;56333;51.306;17.056;2023-03-19T03:57:28;5.76;58.22
69225;DHT22;56333;51.306;17.056;2023-03-19T03:58:53;5.75;58.22
69225;DHT22;56333;51.306;17.056;2023-03-19T04:00:19;5.73;58.45
69225;DHT22;56333;51.306;17.056;2023-03-19T04:01:45;5.72;58.30
69225;DHT22;56333;51.306;17.056;2023-03-19T04:03:09;5.72;58.53
69225;DHT22;56333;51.306;17.056;2023-03-19T04:04:34;5.71;58.53
69225;DHT22;56333;51.306;17.056;2023-03-19T04:05:59;5.70;58.35
69225;DHT22;56333;51.306;17.056;2023-03-19T04:07:26;5.70;58.38
69225;DHT22;56333;51.306;17.056;2023-03-19T04:08:51;5.71;58.30
69225;DHT22;56333;51.306;17.056;2023-03-19T04:10:17;5.71;58.33
69225;DHT22;56333;51.306;17.056;2023-03-19T04:11:42;5.72;58.30
69225;DHT22;56333;51.306;17.056;2023-03-19T04:13:06;5.71;58.45
69225;DHT22;56333;51.306;17.056;2023-03-19T04:14:31;5.71;58.35
69225;DHT22;56333;51.306;17.056;2023-03-19T04:15:56;5.70;58.45
69225;DHT22;56333;51.306;17.056;2023-03-19T04:17:21;5.71;58.45
69225;DHT22;56333;51.306;17.056;2023-03-19T04:18:46;5.71;58.45
69225;DHT22;56333;51.306;17.056;2023-03-19T04:20:12;5.72;58.42
69225;DHT22;56333;51.306;17.056;2023-03-19T04:21:39;5.73;58.47
69225;DHT22;56333;51.306;17.056;2023-03-19T04:23:04;5.72;58.53
69225;DHT22;56333;51.306;17.056;2023-03-19T04:24:29;5.73;58.50
69225;DHT22;56333;51.306;17.056;2023-03-19T04:25:58;5.72;58.45
69225;DHT22;56333;51.306;17.056;2023-03-19T04:27:24;5.72;58.35
69225;DHT22;56333;51.306;17.056;2023-03-19T04:28:49;5.73;58.30
69225;DHT22;56333;51.306;17.056;2023-03-19T04:30:14;5.74;58.28
69225;DHT22;56333;51.306;17.056;2023-03-19T04:31:40;5.73;58.30
69225;DHT22;56333;51.306;17.056;2023-03-19T04:33:04;5.74;58.42
69225;DHT22;56333;51.306;17.056;2023-03-19T04:34:28;5.74;58.45
69225;DHT22;56333;51.306;17.056;2023-03-19T04:35:53;5.76;58.40
69225;DHT22;56333;51.306;17.056;2023-03-19T04:37:18;5.74;58.63
69225;DHT22;56333;51.306;17.056;2023-03-19T04:38:44;5.72;58.55
69225;DHT22;56333;51.306;17.056;2023-03-19T04:40:12;5.72;58.50
69225;DHT22;56333;51.306;17.056;2023-03-19T04:41:39;5.72;58.55
69225;DHT22;56333;51.306;17.056;2023-03-19T04:43:23;5.71;58.67
69225;DHT22;56333;51.306;17.056;2023-03-19T04:44:49;5.70;58.55
69225;DHT22;56333;51.306;17.056;2023-03-19T04:46:15;5.72;58.53
69225;DHT22;56333;51.306;17.056;2023-03-19T04:47:39;5.71;58.53
69225;DHT22;56333;51.306;17.056;2023-03-19T04:49:03;5.71;58.53
69225;DHT22;56333;51.306;17.056;2023-03-19T04:50:28;5.71;58.47
69225;DHT22;56333;51.306;17.056;2023-03-19T04:51:54;5.71;58.63
69225;DHT22;56333;51.306;17.056;2023-03-19T04:53:19;5.72;58.53
69225;DHT22;56333;51.306;17.056;2023-03-19T04:54:44;5.72;58.63
69225;DHT22;56333;51.306;17.056;2023-03-19T04:56:09;5.71;58.58
69225;DHT22;56333;51.306;17.056;2023-03-19T04:57:37;5.72;58.65
69225;DHT22;56333;51.306;17.056;2023-03-19T04:59:02;5.71;58.63
69225;DHT22;56333;51.306;17.056;2023-03-19T05:00:27;5.71;58.60
69225;DHT22;56333;51.306;17.056;2023-03-19T05:01:53;5.70;58.60
69225;DHT22;56333;51.306;17.056;2023-03-19T05:03:18;5.71;58.60
69225;DHT22;56333;51.306;17.056;2023-03-19T05:04:44;5.72;58.55
69225;DHT22;56333;51.306;17.056;2023-03-19T05:06:10;5.72;58.70
69225;DHT22;56333;51.306;17.056;2023-03-19T05:07:34;5.74;58.63
69225;DHT22;56333;51.306;17.056;2023-03-19T05:08:59;5.73;58.70
69225;DHT22;56333;51.306;17.056;2023-03-19T05:10:24;5.74;58.67
69225;DHT22;56333;51.306;17.056;2023-03-19T05:11:49;5.74;58.63
69225;DHT22;56333;51.306;17.056;2023-03-19T05:13:16;5.74;58.60
69225;DHT22;56333;51.306;17.056;2023-03-19T05:14:43;5.76;58.70
69225;DHT22;56333;51.306;17.056;2023-03-19T05:16:21;5.76;58.65
69225;DHT22;56333;51.306;17.056;2023-03-19T05:17:48;5.79;58.75
69225;DHT22;56333;51.306;17.056;2023-03-19T05:19:17;5.83;58.70
69225;DHT22;56333;51.306;17.056;2023-03-19T05:20:41;5.85;58.75
69225;DHT22;56333;51.306;17.056;2023-03-19T05:22:13;5.86;58.60
69225;DHT22;56333;51.306;17.056;2023-03-19T05:23:37;5.85;58.85
69225;DHT22;56333;51.306;17.056;2023-03-19T05:25:04;5.86;58.60
69225;DHT22;56333;51.306;17.056;2023-03-19T05:26:31;5.90;58.72
69225;DHT22;56333;51.306;17.056;2023-03-19T05:28:14;5.93;58.78
69225;DHT22;56333;51.306;17.056;2023-03-19T05:29:40;5.97;58.60
69225;DHT22;56333;51.306;17.056;2023-03-19T05:31:13;5.99;58.58
69225;DHT22;56333;51.306;17.056;2023-03-19T05:32:44;6.03;58.63
69225;DHT22;56333;51.306;17.056;2023-03-19T05:34:16;6.04;58.60
69225;DHT22;56333;51.306;17.056;2023-03-19T05:35:41;6.08;58.55
69225;DHT22;56333;51.306;17.056;2023-03-19T05:37:25;6.11;58.55
69225;DHT22;56333;51.306;17.056;2023-03-19T05:38:52;6.15;58.47
69225;DHT22;56333;51.306;17.056;2023-03-19T05:40:24;6.18;58.47
69225;DHT22;56333;51.306;17.056;2023-03-19T05:41:52;6.21;58.38
69225;DHT22;56333;51.306;17.056;2023-03-19T05:43:20;6.24;58.35
69225;DHT22;56333;51.306;17.056;2023-03-19T05:44:46;6.28;58.30
69225;DHT22;56333;51.306;17.056;2023-03-19T05:46:21;6.32;58.20
69225;DHT22;56333;51.306;17.056;2023-03-19T05:47:47;6.35;58.25
69225;DHT22;56333;51.306;17.056;2023-03-19T05:49:11;6.41;58.10
69225;DHT22;56333;51.306;17.056;2023-03-19T05:50:37;6.43;58.03
69225;DHT22;56333;51.306;17.056;2023-03-19T05:52:12;6.49;58.00
69225;DHT22;56333;51.306;17.056;2023-03-19T05:53:37;6.55;57.95
69225;DHT22;56333;51.306;17.056;2023-03-19T05:55:26;6.62;57.85
69225;DHT22;56333;51.306;17.056;2023-03-19T05:56:58;6.65;57.80
69225;DHT22;56333;51.306;17.056;2023-03-19T05:58:26;6.72;57.75
69225;DHT22;56333;51.306;17.056;2023-03-19T05:59:51;6.77;57.70
69225;DHT22;56333;51.306;17.056;2023-03-19T06:01:38;6.83;57.72
69225;DHT22;56333;51.306;17.056;2023-03-19T06:03:03;6.91;57.65
69225;DHT22;56333;51.306;17.056;2023-03-19T06:05:57;7.02;57.50
69225;DHT22;56333;51.306;17.056;2023-03-19T06:07:32;7.10;57.40
69225;DHT22;56333;51.306;17.056;2023-03-19T06:09:03;7.17;57.33
69225;DHT22;56333;51.306;17.056;2023-03-19T06:10:34;7.26;57.28
69225;DHT22;56333;51.306;17.056;2023-03-19T06:12:02;7.34;57.13
69225;DHT22;56333;51.306;17.056;2023-03-19T06:14:23;7.46;56.90
69225;DHT22;56333;51.306;17.056;2023-03-19T06:16:08;7.55;56.83
69225;DHT22;56333;51.306;17.056;2023-03-19T06:17:43;7.63;56.70
69225;DHT22;56333;51.306;17.056;2023-03-19T06:19:10;7.74;56.50
69225;DHT22;56333;51.306;17.056;2023-03-19T06:20:35;7.82;56.30
69225;DHT22;56333;51.306;17.056;2023-03-19T06:22:00;7.88;56.40
69225;DHT22;56333;51.306;17.056;2023-03-19T06:23:24;7.95;56.08
69225;DHT22;56333;51.306;17.056;2023-03-19T06:24:50;8.03;56.08
69225;DHT22;56333;51.306;17.056;2023-03-19T06:26:16;8.10;56.03
69225;DHT22;56333;51.306;17.056;2023-03-19T06:27:49;8.15;55.90
69225;DHT22;56333;51.306;17.056;2023-03-19T06:29:19;8.23;55.85
69225;DHT22;56333;51.306;17.056;2023-03-19T06:30:46;8.27;55.70
69225;DHT22;56333;51.306;17.056;2023-03-19T06:32:51;8.35;55.42
69225;DHT22;56333;51.306;17.056;2023-03-19T06:34:16;8.40;55.63
69225;DHT22;56333;51.306;17.056;2023-03-19T06:35:41;8.45;55.22
69225;DHT22;56333;51.306;17.056;2023-03-19T06:37:06;8.52;55.33
69225;DHT22;56333;51.306;17.056;2023-03-19T06:38:31;8.58;55.25
69225;DHT22;56333;51.306;17.056;2023-03-19T06:39:57;8.65;55.20
69225;DHT22;56333;51.306;17.056;2023-03-19T06:41:22;8.73;55.38
69225;DHT22;56333;51.306;17.056;2023-03-19T06:42:47;8.79;55.25
69225;DHT22;56333;51.306;17.056;2023-03-19T06:44:12;8.87;55.22
69225;DHT22;56333;51.306;17.056;2023-03-19T06:45:37;8.93;55.00
69225;DHT22;56333;51.306;17.056;2023-03-19T06:47:02;8.99;54.85
69225;DHT22;56333;51.306;17.056;2023-03-19T06:48:28;9.05;54.78
69225;DHT22;56333;51.306;17.056;2023-03-19T06:49:53;9.09;54.95
69225;DHT22;56333;51.306;17.056;2023-03-19T06:51:18;9.12;54.75
69225;DHT22;56333;51.306;17.056;2023-03-19T06:52:43;9.15;54.55
69225;DHT22;56333;51.306;17.056;2023-03-19T06:54:08;9.19;54.55
69225;DHT22;56333;51.306;17.056;2023-03-19T06:55:32;9.22;54.28
69225;DHT22;56333;51.306;17.056;2023-03-19T06:56:58;9.24;54.13
69225;DHT22;56333;51.306;17.056;2023-03-19T06:58:23;9.27;53.97
69225;DHT22;56333;51.306;17.056;2023-03-19T06:59:48;9.31;54.10
69225;DHT22;56333;51.306;17.056;2023-03-19T07:01:13;9.37;54.20
69225;DHT22;56333;51.306;17.056;2023-03-19T07:02:39;9.41;54.03
69225;DHT22;56333;51.306;17.056;2023-03-19T07:04:05;9.46;54.00
69225;DHT22;56333;51.306;17.056;2023-03-19T07:05:29;9.49;53.92
69225;DHT22;56333;51.306;17.056;2023-03-19T07:06:54;9.55;53.85
69225;DHT22;56333;51.306;17.056;2023-03-19T07:08:19;9.60;53.70
69225;DHT22;56333;51.306;17.056;2023-03-19T07:09:43;9.67;53.65
69225;DHT22;56333;51.306;17.056;2023-03-19T07:11:09;9.74;53.63
69225;DHT22;56333;51.306;17.056;2023-03-19T07:12:36;9.79;53.45
69225;DHT22;56333;51.306;17.056;2023-03-19T07:14:02;9.85;53.10
69225;DHT22;56333;51.306;17.056;2023-03-19T07:15:27;9.91;53.00
69225;DHT22;56333;51.306;17.056;2023-03-19T07:16:52;9.96;53.00
69225;DHT22;56333;51.306;17.056;2023-03-19T07:18:18;10.00;52.97
69225;DHT22;56333;51.306;17.056;2023-03-19T07:19:44;10.01;52.95
69225;DHT22;56333;51.306;17.056;2023-03-19T07:21:09;10.03;53.00
69225;DHT22;56333;51.306;17.056;2023-03-19T07:22:34;10.07;52.97
69225;DHT22;56333;51.306;17.056;2023-03-19T07:23:59;10.09;52.85
69225;DHT22;56333;51.306;17.056;2023-03-19T07:25:24;10.14;52.78
69225;DHT22;56333;51.306;17.056;2023-03-19T07:26:49;10.21;52.78
69225;DHT22;56333;51.306;17.056;2023-03-19T07:28:21;10.29;52.70
69225;DHT22;56333;51.306;17.056;2023-03-19T07:29:46;10.39;52.08
69225;DHT22;56333;51.306;17.056;2023-03-19T07:31:11;10.45;52.15
69225;DHT22;56333;51.306;17.056;2023-03-19T07:32:37;10.56;52.17
69225;DHT22;56333;51.306;17.056;2023-03-19T07:34:02;10.64;52.25
69225;DHT22;56333;51.306;17.056;2023-03-19T07:35:31;10.71;52.22
69225;DHT22;56333;51.306;17.056;2023-03-19T07:36:59;10.76;52.20
69225;DHT22;56333;51.306;17.056;2023-03-19T07:38:24;10.80;51.67
69225;DHT22;56333;51.306;17.056;2023-03-19T07:39:49;10.85;51.63
69225;DHT22;56333;51.306;17.056;2023-03-19T07:41:14;10.90;51.92
69225;DHT22;56333;51.306;17.056;2023-03-19T07:42:40;10.92;51.53
69225;DHT22;56333;51.306;17.056;2023-03-19T07:44:05;10.97;51.60
69225;DHT22;56333;51.306;17.056;2023-03-19T07:45:30;11.03;51.33
69225;DHT22;56333;51.306;17.056;2023-03-19T07:46:56;11.07;51.50
69225;DHT22;56333;51.306;17.056;2023-03-19T07:48:21;11.12;51.30
69225;DHT22;56333;51.306;17.056;2023-03-19T07:49:46;11.16;51.35
69225;DHT22;56333;51.306;17.056;2023-03-19T07:51:11;11.23;51.30
69225;DHT22;56333;51.306;17.056;2023-03-19T07:52:36;11.29;51.25
69225;DHT22;56333;51.306;17.056;2023-03-19T07:54:02;11.38;51.28
69225;DHT22;56333;51.306;17.056;2023-03-19T07:55:27;11.45;51.03
69225;DHT22;56333;51.306;17.056;2023-03-19T07:56:52;11.49;50.53
69225;DHT22;56333;51.306;17.056;2023-03-19T07:58:18;11.54;50.75
69225;DHT22;56333;51.306;17.056;2023-03-19T07:59:43;11.58;50.40
69225;DHT22;56333;51.306;17.056;2023-03-19T08:01:07;11.63;50.60
69225;DHT22;56333;51.306;17.056;2023-03-19T08:02:31;11.68;50.60
69225;DHT22;56333;51.306;17.056;2023-03-19T08:03:56;11.71;50.47
69225;DHT22;56333;51.306;17.056;2023-03-19T08:05:21;11.74;50.20
69225;DHT22;56333;51.306;17.056;2023-03-19T08:06:47;11.77;50.20
69225;DHT22;56333;51.306;17.056;2023-03-19T08:08:12;11.78;49.95
69225;DHT22;56333;51.306;17.056;2023-03-19T08:09:36;11.83;50.33
69225;DHT22;56333;51.306;17.056;2023-03-19T08:11:01;11.86;50.30
69225;DHT22;56333;51.306;17.056;2023-03-19T08:12:26;11.90;50.50
69225;DHT22;56333;51.306;17.056;2023-03-19T08:13:56;11.96;50.40
69225;DHT22;56333;51.306;17.056;2023-03-19T08:15:21;12.03;50.42
69225;DHT22;56333;51.306;17.056;2023-03-19T08:16:58;12.07;50.50
69225;DHT22;56333;51.306;17.056;2023-03-19T08:18:23;12.11;50.38
69225;DHT22;56333;51.306;17.056;2023-03-19T08:19:52;12.16;50.33
69225;DHT22;56333;51.306;17.056;2023-03-19T08:21:26;12.19;50.15
69225;DHT22;56333;51.306;17.056;2023-03-19T08:23:00;12.23;50.30
69225;DHT22;56333;51.306;17.056;2023-03-19T08:24:57;12.29;50.42
69225;DHT22;56333;51.306;17.056;2023-03-19T08:26:26;12.32;50.08
69225;DHT22;56333;51.306;17.056;2023-03-19T08:27:54;12.38;50.05
69225;DHT22;56333;51.306;17.056;2023-03-19T08:29:34;12.42;49.97
69225;DHT22;56333;51.306;17.056;2023-03-19T08:31:16;12.50;50.00
69225;DHT22;56333;51.306;17.056;2023-03-19T08:32:45;12.53;49.75
69225;DHT22;56333;51.306;17.056;2023-03-19T08:34:15;12.57;49.50
69225;DHT22;56333;51.306;17.056;2023-03-19T08:35:41;12.61;49.83
69225;DHT22;56333;51.306;17.056;2023-03-19T08:37:10;12.60;49.80
69225;DHT22;56333;51.306;17.056;2023-03-19T08:38:41;12.57;49.95
69225;DHT22;56333;51.306;17.056;2023-03-19T08:40:12;12.52;49.95
69225;DHT22;56333;51.306;17.056;2023-03-19T08:41:38;12.53;50.10
69225;DHT22;56333;51.306;17.056;2023-03-19T08:43:03;12.52;50.08
69225;DHT22;56333;51.306;17.056;2023-03-19T08:44:34;12.50;50.10
69225;DHT22;56333;51.306;17.056;2023-03-19T08:46:00;12.52;50.10
69225;DHT22;56333;51.306;17.056;2023-03-19T08:47:30;12.52;50.05
69225;DHT22;56333;51.306;17.056;2023-03-19T08:48:56;12.55;50.25
69225;DHT22;56333;51.306;17.056;2023-03-19T08:50:21;12.57;50.13
69225;DHT22;56333;51.306;17.056;2023-03-19T08:51:50;12.50;50.05
69225;DHT22;56333;51.306;17.056;2023-03-19T08:53:15;12.41;50.15
69225;DHT22;56333;51.306;17.056;2023-03-19T08:54:43;12.34;50.38
69225;DHT22;56333;51.306;17.056;2023-03-19T08:56:09;12.29;50.55
69225;DHT22;56333;51.306;17.056;2023-03-19T08:57:40;12.26;50.67
69225;DHT22;56333;51.306;17.056;2023-03-19T08:59:12;12.22;50.92
69225;DHT22;56333;51.306;17.056;2023-03-19T09:00:38;12.19;50.90
69225;DHT22;56333;51.306;17.056;2023-03-19T09:02:04;12.16;51.05
69225;DHT22;56333;51.306;17.056;2023-03-19T09:03:33;12.15;51.08
69225;DHT22;56333;51.306;17.056;2023-03-19T09:05:02;12.10;51.15
69225;DHT22;56333;51.306;17.056;2023-03-19T09:06:30;12.10;51.28
69225;DHT22;56333;51.306;17.056;2023-03-19T09:07:57;12.12;51.40
69225;DHT22;56333;51.306;17.056;2023-03-19T09:09:23;12.15;51.35
69225;DHT22;56333;51.306;17.056;2023-03-19T09:10:49;12.16;51.45
69225;DHT22;56333;51.306;17.056;2023-03-19T09:12:16;12.19;51.45
69225;DHT22;56333;51.306;17.056;2023-03-19T09:13:44;12.26;51.17
69225;DHT22;56333;51.306;17.056;2023-03-19T09:15:09;12.24;51.13
69225;DHT22;56333;51.306;17.056;2023-03-19T09:16:37;12.26;51.08